createdAt,value
2024-03-19T00:00:30.136Z,2.80
2024-03-19T00:03:20.708Z,2.70
2024-03-19T00:05:51.280Z,2.70
2024-03-19T00:08:21.879Z,2.70
2024-03-19T00:10:55.504Z,2.70
2024-03-19T00:13:26.141Z,2.70
2024-03-19T00:15:57.261Z,2.70
2024-03-19T00:18:28.228Z,2.70
2024-03-19T00:20:58.824Z,2.72
2024-03-19T00:23:29.431Z,2.74
2024-03-19T00:26:00.294Z,2.80
2024-03-19T00:28:30.888Z,2.80
2024-03-19T00:31:01.920Z,2.80
2024-03-19T00:33:32.665Z,2.80
2024-03-19T00:36:07.067Z,2.80
2024-03-19T00:38:37.688Z,2.90
2024-03-19T00:41:08.540Z,2.90
2024-03-19T00:43:39.197Z,2.90
2024-03-19T00:46:09.722Z,2.90
2024-03-19T00:48:40.228Z,2.90
2024-03-19T00:51:10.868Z,2.80
2024-03-19T00:53:41.432Z,2.80
2024-03-19T00:56:12.161Z,2.80
2024-03-19T00:58:42.919Z,2.80
2024-03-19T01:01:14.704Z,2.80
2024-03-19T01:03:45.272Z,2.74
2024-03-19T01:06:16.157Z,2.70
2024-03-19T01:08:47.010Z,2.70
2024-03-19T01:11:17.694Z,2.70
2024-03-19T01:13:48.244Z,2.70
2024-03-19T01:16:18.942Z,2.70
2024-03-19T01:18:49.426Z,2.70
2024-03-19T01:21:19.978Z,2.70
2024-03-19T01:23:50.548Z,2.70
2024-03-19T01:26:22.654Z,2.70
2024-03-19T01:28:53.304Z,2.66
2024-03-19T01:31:23.982Z,2.60
2024-03-19T01:33:55.100Z,2.60
2024-03-19T01:36:25.742Z,2.52
2024-03-19T01:38:56.280Z,2.50
2024-03-19T01:41:26.879Z,2.50
2024-03-19T01:43:57.369Z,2.50
2024-03-19T01:46:30.373Z,2.54
2024-03-19T01:49:01.213Z,2.60
2024-03-19T01:51:33.069Z,2.60
2024-03-19T01:54:03.636Z,2.60
2024-03-19T01:56:35.658Z,2.60
2024-03-19T01:59:06.394Z,2.60
2024-03-19T02:01:37.080Z,2.60
2024-03-19T02:04:07.742Z,2.68
2024-03-19T02:06:38.501Z,2.70
2024-03-19T02:09:10.295Z,2.70
2024-03-19T02:11:41.602Z,2.70
2024-03-19T02:14:12.201Z,2.70
2024-03-19T02:16:42.743Z,2.70
2024-03-19T02:19:14.003Z,2.72
2024-03-19T02:21:44.510Z,2.70
2024-03-19T02:24:15.140Z,2.70
2024-03-19T02:26:45.752Z,2.70
2024-03-19T02:29:16.455Z,2.70
2024-03-19T02:31:46.900Z,2.70
2024-03-19T02:34:17.424Z,2.76
2024-03-19T02:36:47.965Z,2.80
2024-03-19T02:39:18.833Z,2.80
2024-03-19T02:41:50.137Z,2.80
2024-03-19T02:44:20.803Z,2.80
2024-03-19T02:46:51.335Z,2.80
2024-03-19T02:49:21.878Z,2.80
2024-03-19T02:51:52.547Z,2.80
2024-03-19T02:54:23.106Z,2.80
2024-03-19T02:56:53.755Z,2.74
2024-03-19T02:59:24.507Z,2.72
2024-03-19T03:01:55.370Z,2.70
2024-03-19T03:04:25.957Z,2.70
2024-03-19T03:06:56.613Z,2.72
2024-03-19T03:09:27.200Z,2.72
2024-03-19T03:11:57.749Z,2.72
2024-03-19T03:14:28.290Z,2.70
2024-03-19T03:16:58.896Z,2.70
2024-03-19T03:19:29.421Z,2.70
2024-03-19T03:22:00.012Z,2.72
2024-03-19T03:24:31.539Z,2.74
2024-03-19T03:27:02.126Z,2.80
2024-03-19T03:29:32.716Z,2.80
2024-03-19T03:32:03.277Z,2.90
2024-03-19T03:34:33.865Z,2.90
2024-03-19T03:37:10.739Z,2.90
2024-03-19T03:39:45.824Z,2.90
2024-03-19T03:42:16.428Z,2.90
2024-03-19T03:44:46.991Z,2.90
2024-03-19T03:47:17.596Z,2.90
2024-03-19T03:49:48.850Z,2.90
2024-03-19T03:52:19.345Z,2.94
2024-03-19T03:54:49.883Z,2.90
2024-03-19T03:57:20.496Z,2.90
2024-03-19T03:59:51.092Z,2.90
2024-03-19T04:02:21.605Z,2.90
2024-03-19T04:04:54.017Z,2.90
2024-03-19T04:07:24.556Z,2.90
2024-03-19T04:09:55.020Z,2.90
2024-03-19T04:12:25.657Z,2.90
2024-03-19T04:14:56.198Z,2.86
2024-03-19T04:17:26.783Z,2.90
2024-03-19T04:19:57.353Z,2.84
2024-03-19T04:22:28.394Z,2.80
2024-03-19T04:24:58.888Z,2.78
2024-03-19T04:27:29.480Z,2.70
2024-03-19T04:30:00.059Z,2.70
2024-03-19T04:32:30.794Z,2.70
2024-03-19T04:35:01.315Z,2.70
2024-03-19T04:37:32.224Z,2.70
2024-03-19T04:40:02.962Z,2.60
2024-03-19T04:42:33.510Z,2.60
2024-03-19T04:45:04.057Z,2.60
2024-03-19T04:47:34.746Z,2.56
2024-03-19T04:50:05.825Z,2.50
2024-03-19T04:52:36.506Z,2.50
2024-03-19T04:55:08.217Z,2.50
2024-03-19T04:57:38.745Z,2.50
2024-03-19T05:00:14.173Z,2.50
2024-03-19T05:02:44.766Z,2.50
2024-03-19T05:05:15.410Z,2.50
2024-03-19T05:07:46.107Z,2.50
2024-03-19T05:10:16.789Z,2.50
2024-03-19T05:12:47.346Z,2.50
2024-03-19T05:15:18.089Z,2.50
2024-03-19T05:17:48.678Z,2.50
2024-03-19T05:20:20.028Z,2.50
2024-03-19T05:22:50.728Z,2.48
2024-03-19T05:25:21.339Z,2.46
2024-03-19T05:27:51.964Z,2.48
2024-03-19T05:30:23.381Z,2.50
2024-03-19T05:32:53.954Z,2.50
2024-03-19T05:35:24.767Z,2.60
2024-03-19T05:37:55.338Z,2.60
2024-03-19T05:40:26.324Z,2.60
2024-03-19T05:42:56.856Z,2.60
2024-03-19T05:45:27.628Z,2.66
2024-03-19T05:47:58.534Z,2.70
2024-03-19T05:50:29.101Z,2.70
2024-03-19T05:52:59.789Z,2.70
2024-03-19T05:55:30.349Z,2.72
2024-03-19T05:58:00.894Z,2.80
2024-03-19T06:00:31.456Z,2.80
2024-03-19T06:03:02.524Z,2.90
2024-03-19T06:05:33.105Z,3.00
2024-03-19T06:08:03.707Z,3.04
2024-03-19T06:10:35.246Z,3.10
2024-03-19T06:13:05.886Z,3.20
2024-03-19T06:15:36.552Z,3.20
2024-03-19T06:18:08.149Z,3.30
2024-03-19T06:20:38.924Z,3.38
2024-03-19T06:23:09.594Z,3.40
2024-03-19T06:25:40.872Z,3.48
2024-03-19T06:28:12.101Z,3.50
2024-03-19T06:30:42.659Z,3.70
2024-03-19T06:33:13.357Z,3.80
2024-03-19T06:35:45.512Z,4.00
2024-03-19T06:38:16.109Z,4.10
2024-03-19T06:40:46.998Z,4.20
2024-03-19T06:43:17.561Z,4.20
2024-03-19T06:45:48.161Z,4.30
2024-03-19T06:48:20.014Z,4.30
2024-03-19T06:50:50.632Z,4.40
2024-03-19T06:53:22.998Z,4.50
2024-03-19T06:55:53.548Z,4.50
2024-03-19T06:58:24.215Z,4.50
2024-03-19T07:00:54.841Z,4.50
2024-03-19T07:03:25.404Z,4.60
2024-03-19T07:05:56.100Z,4.60
2024-03-19T07:08:26.922Z,4.60
2024-03-19T07:10:59.174Z,4.70
2024-03-19T07:13:30.792Z,4.80
2024-03-19T07:16:01.283Z,4.90
2024-03-19T07:18:31.833Z,4.98
2024-03-19T07:21:02.339Z,5.04
2024-03-19T07:23:32.987Z,5.20
2024-03-19T07:26:03.975Z,5.20
2024-03-19T07:28:34.594Z,5.30
2024-03-19T07:31:05.383Z,5.30
2024-03-19T07:33:36.119Z,5.30
2024-03-19T07:36:07.368Z,5.40
2024-03-19T07:38:38.241Z,5.56
2024-03-19T07:41:09.376Z,5.60
2024-03-19T07:43:40.372Z,5.66
2024-03-19T07:46:11.588Z,5.88
2024-03-19T07:48:42.214Z,6.02
2024-03-19T07:51:12.740Z,6.10
2024-03-19T07:53:43.554Z,6.20
2024-03-19T07:56:14.390Z,6.16
2024-03-19T07:58:45.090Z,6.20
2024-03-19T08:01:15.821Z,6.30
2024-03-19T08:03:51.375Z,6.40
2024-03-19T08:06:25.259Z,6.40
2024-03-19T08:08:55.957Z,6.22
2024-03-19T08:11:29.936Z,6.06
2024-03-19T08:14:03.406Z,6.00
2024-03-19T08:16:34.173Z,5.90
2024-03-19T08:19:04.790Z,5.90
2024-03-19T08:21:36.838Z,6.00
2024-03-19T08:24:08.115Z,6.00
2024-03-19T08:26:38.692Z,5.90
2024-03-19T08:29:09.566Z,5.90
2024-03-19T08:31:40.262Z,5.96
2024-03-19T08:34:10.770Z,6.20
2024-03-19T08:36:41.370Z,6.48
2024-03-19T08:39:12.079Z,6.70
2024-03-19T08:41:42.730Z,6.80
2024-03-19T08:44:13.489Z,6.90
2024-03-19T08:46:44.186Z,7.00
2024-03-19T08:49:17.675Z,6.90
2024-03-19T08:51:48.213Z,6.80
2024-03-19T08:54:18.902Z,6.78
2024-03-19T08:56:49.549Z,6.86
2024-03-19T08:59:20.179Z,7.00
2024-03-19T09:01:50.747Z,7.00
2024-03-19T09:04:21.374Z,7.00
2024-03-19T09:06:51.916Z,7.02
2024-03-19T09:09:22.573Z,7.10
2024-03-19T09:11:53.688Z,7.66
2024-03-19T09:14:24.256Z,8.82
2024-03-19T09:16:54.830Z,10.26
2024-03-19T09:19:26.276Z,10.84
2024-03-19T09:21:56.811Z,11.36
2024-03-19T09:24:27.956Z,12.44
2024-03-19T09:26:58.600Z,12.80
2024-03-19T09:29:29.162Z,12.50
2024-03-19T09:31:59.745Z,13.28
2024-03-19T09:34:30.264Z,14.02
2024-03-19T09:37:01.076Z,14.74
2024-03-19T09:39:31.653Z,15.28
2024-03-19T09:42:11.370Z,15.84
2024-03-19T09:44:43.809Z,16.30
2024-03-19T09:47:19.048Z,15.50
2024-03-19T09:49:50.997Z,14.62
2024-03-19T09:52:23.710Z,13.84
2024-03-19T09:54:54.433Z,12.90
2024-03-19T09:57:25.285Z,12.06
2024-03-19T09:59:58.725Z,13.10
2024-03-19T10:02:29.265Z,14.60
2024-03-19T10:04:59.935Z,14.74
2024-03-19T10:07:30.397Z,13.94
2024-03-19T10:10:01.017Z,12.98
2024-03-19T10:12:33.487Z,12.16
2024-03-19T10:15:09.469Z,11.60
2024-03-19T10:17:40.338Z,11.12
2024-03-19T10:20:12.648Z,10.80
2024-03-19T10:22:43.416Z,10.60
2024-03-19T10:25:16.347Z,10.40
2024-03-19T10:27:47.488Z,10.36
2024-03-19T10:30:20.466Z,10.46
2024-03-19T10:32:51.690Z,10.86
2024-03-19T10:35:23.723Z,11.76
2024-03-19T10:37:55.257Z,12.50
2024-03-19T10:40:25.995Z,12.22
2024-03-19T10:42:57.009Z,12.08
2024-03-19T10:45:29.968Z,11.56
2024-03-19T10:48:00.678Z,11.22
2024-03-19T10:50:31.893Z,11.20
2024-03-19T10:53:05.692Z,11.74
2024-03-19T10:55:38.713Z,11.70
2024-03-19T10:58:13.052Z,11.60
2024-03-19T11:00:44.313Z,11.40
2024-03-19T11:03:16.860Z,11.30
2024-03-19T11:05:49.718Z,11.30
2024-03-19T11:08:22.115Z,11.20
2024-03-19T11:10:52.620Z,11.10
2024-03-19T11:13:26.604Z,10.80
2024-03-19T11:15:57.295Z,10.50
2024-03-19T11:18:30.217Z,10.40
2024-03-19T11:21:00.784Z,10.40
2024-03-19T11:23:31.668Z,10.40
2024-03-19T11:26:05.671Z,10.50
2024-03-19T11:28:36.303Z,10.50
2024-03-19T11:31:07.557Z,10.54
2024-03-19T11:33:41.532Z,10.60
2024-03-19T11:36:15.444Z,10.50
2024-03-19T11:38:45.978Z,10.50
2024-03-19T11:41:27.130Z,10.50
2024-03-19T11:44:02.931Z,10.50
2024-03-19T11:46:34.297Z,10.42
2024-03-19T11:49:04.928Z,10.40
2024-03-19T11:51:35.568Z,10.40
2024-03-19T11:54:12.442Z,10.54
2024-03-19T11:56:43.466Z,10.70
2024-03-19T11:59:14.118Z,10.70
2024-03-19T12:01:44.712Z,10.66
2024-03-19T12:04:15.298Z,10.60
2024-03-19T12:06:46.376Z,10.60
2024-03-19T12:09:17.475Z,10.60
2024-03-19T12:11:49.434Z,10.60
2024-03-19T12:14:22.230Z,10.60
2024-03-19T12:16:53.016Z,10.60
2024-03-19T12:19:23.916Z,10.60
2024-03-19T12:21:56.481Z,10.60
2024-03-19T12:24:27.115Z,10.80
2024-03-19T12:26:57.724Z,10.78
2024-03-19T12:29:28.522Z,10.70
2024-03-19T12:32:04.121Z,10.70
2024-03-19T12:34:59.946Z,10.70
2024-03-19T12:37:30.520Z,10.48
2024-03-19T12:40:01.478Z,10.30
2024-03-19T12:42:32.126Z,10.20
2024-03-19T12:45:02.883Z,10.12
2024-03-19T12:47:33.492Z,10.20
2024-03-19T12:50:04.731Z,10.20
2024-03-19T12:52:35.478Z,10.30
2024-03-19T12:55:06.942Z,10.36
2024-03-19T12:57:40.037Z,10.30
2024-03-19T13:00:12.833Z,10.38
2024-03-19T13:02:43.568Z,10.50
2024-03-19T13:05:15.269Z,10.80
2024-03-19T13:07:45.816Z,11.40
2024-03-19T13:10:21.734Z,12.34
2024-03-19T13:12:52.975Z,13.10
2024-03-19T13:15:23.584Z,13.40
2024-03-19T13:17:55.826Z,13.38
2024-03-19T13:20:27.607Z,13.18
2024-03-19T13:22:58.162Z,12.80
2024-03-19T13:25:29.344Z,12.54
2024-03-19T13:28:00.652Z,12.32
2024-03-19T13:30:31.301Z,12.90
2024-03-19T13:33:02.100Z,14.58
2024-03-19T13:35:32.650Z,15.00
2024-03-19T13:38:04.206Z,16.74
2024-03-19T13:40:34.813Z,19.00
2024-03-19T13:43:05.770Z,20.82
2024-03-19T13:45:41.398Z,22.22
2024-03-19T13:48:14.657Z,23.16
2024-03-19T13:50:48.457Z,24.06
2024-03-19T13:53:19.751Z,24.98
2024-03-19T13:55:50.490Z,25.48
2024-03-19T13:58:21.331Z,25.88
2024-03-19T14:00:52.678Z,26.10
2024-03-19T14:03:24.268Z,26.20
2024-03-19T14:05:55.120Z,26.22
2024-03-19T14:08:25.771Z,26.10
2024-03-19T14:10:56.397Z,26.10
2024-03-19T14:13:27.190Z,25.16
2024-03-19T14:15:57.698Z,23.60
2024-03-19T14:18:28.712Z,22.50
2024-03-19T14:20:59.436Z,21.74
2024-03-19T14:23:30.652Z,22.16
2024-03-19T14:26:01.191Z,22.30
2024-03-19T14:28:31.793Z,22.66
2024-03-19T14:31:03.008Z,22.80
2024-03-19T14:33:33.575Z,22.26
2024-03-19T14:36:04.393Z,21.00
2024-03-19T14:38:35.115Z,18.94
2024-03-19T14:41:06.538Z,16.94
2024-03-19T14:43:39.114Z,15.38
2024-03-19T14:46:10.631Z,14.38
2024-03-19T14:48:41.175Z,13.62
2024-03-19T14:51:11.722Z,13.06
2024-03-19T14:53:43.424Z,12.48
2024-03-19T14:56:14.473Z,11.96
2024-03-19T14:58:45.040Z,11.40
2024-03-19T15:01:15.604Z,10.94
2024-03-19T15:03:46.346Z,10.62
2024-03-19T15:06:16.910Z,10.44
2024-03-19T15:08:47.673Z,10.20
2024-03-19T15:11:18.314Z,10.10
2024-03-19T15:13:48.981Z,9.90
2024-03-19T15:16:19.681Z,9.80
2024-03-19T15:18:50.477Z,9.60
2024-03-19T15:21:21.125Z,9.40
2024-03-19T15:23:51.941Z,9.30
2024-03-19T15:26:22.452Z,9.20
2024-03-19T15:28:53.131Z,9.10
2024-03-19T15:31:23.665Z,8.90
2024-03-19T15:33:54.944Z,8.78
2024-03-19T15:36:25.867Z,8.70
2024-03-19T15:38:56.435Z,8.60
2024-03-19T15:41:29.554Z,8.60
2024-03-19T15:44:00.263Z,8.60
2024-03-19T15:46:30.948Z,8.50
2024-03-19T15:49:01.577Z,8.50
2024-03-19T15:51:32.501Z,8.40
2024-03-19T15:54:03.092Z,8.24
2024-03-19T15:56:33.772Z,8.14
2024-03-19T15:59:04.676Z,8.06
2024-03-19T16:01:35.245Z,8.00
2024-03-19T16:04:06.157Z,7.90
2024-03-19T16:06:36.814Z,7.90
2024-03-19T16:09:10.235Z,7.82
2024-03-19T16:11:40.920Z,7.80
2024-03-19T16:14:12.639Z,7.80
2024-03-19T16:16:44.281Z,7.70
2024-03-19T16:19:14.817Z,7.60
2024-03-19T16:21:45.892Z,7.50
2024-03-19T16:24:16.408Z,7.50
2024-03-19T16:26:47.009Z,7.40
2024-03-19T16:29:17.483Z,7.40
2024-03-19T16:31:48.131Z,7.40
2024-03-19T16:34:18.693Z,7.30
2024-03-19T16:36:49.206Z,7.20
2024-03-19T16:39:19.908Z,7.10
2024-03-19T16:41:50.787Z,6.98
2024-03-19T16:44:21.341Z,6.90
2024-03-19T16:46:53.059Z,6.80
2024-03-19T16:49:23.615Z,6.70
2024-03-19T16:51:54.197Z,6.60
2024-03-19T16:54:24.703Z,6.50
2024-03-19T16:56:55.626Z,6.40
2024-03-19T16:59:26.160Z,6.30
2024-03-19T17:01:57.227Z,6.20
2024-03-19T17:04:27.821Z,6.10
2024-03-19T17:06:59.684Z,6.00
2024-03-19T17:09:30.291Z,5.90
2024-03-19T17:12:00.927Z,5.88
2024-03-19T17:14:31.596Z,5.80
2024-03-19T17:17:02.341Z,5.70
2024-03-19T17:19:33.137Z,5.62
2024-03-19T17:22:03.710Z,5.60
2024-03-19T17:24:34.329Z,5.50
2024-03-19T17:27:05.257Z,5.50
2024-03-19T17:29:35.912Z,5.42
2024-03-19T17:32:07.153Z,5.40
2024-03-19T17:34:44.018Z,5.40
2024-03-19T17:37:15.013Z,5.30
2024-03-19T17:39:45.561Z,5.30
2024-03-19T17:42:16.149Z,5.30
2024-03-19T17:44:46.747Z,5.30
2024-03-19T17:47:17.394Z,5.30
2024-03-19T17:49:48.005Z,5.20
2024-03-19T17:52:18.646Z,5.20
2024-03-19T17:54:49.638Z,5.10
2024-03-19T17:57:20.291Z,5.04
2024-03-19T17:59:50.894Z,5.00
2024-03-19T18:02:21.563Z,5.00
2024-03-19T18:04:52.401Z,4.90
2024-03-19T18:07:23.044Z,4.90
2024-03-19T18:09:54.829Z,4.90
2024-03-19T18:12:25.487Z,4.80
2024-03-19T18:14:56.142Z,4.72
2024-03-19T18:17:27.184Z,4.70
2024-03-19T18:19:57.762Z,4.68
2024-03-19T18:22:28.535Z,4.60
2024-03-19T18:24:59.157Z,4.58
2024-03-19T18:27:31.134Z,4.50
2024-03-19T18:30:03.318Z,4.50
2024-03-19T18:32:34.009Z,4.50
2024-03-19T18:35:05.131Z,4.50
2024-03-19T18:37:36.033Z,4.44
2024-03-19T18:40:07.752Z,4.40
2024-03-19T18:42:38.728Z,4.40
2024-03-19T18:45:11.912Z,4.30
2024-03-19T18:47:44.721Z,4.30
2024-03-19T18:50:21.594Z,4.20
2024-03-19T18:52:52.134Z,4.20
2024-03-19T18:55:23.126Z,4.20
2024-03-19T18:57:58.438Z,4.16
2024-03-19T19:00:29.898Z,4.10
2024-03-19T19:03:00.777Z,4.10
2024-03-19T19:05:32.142Z,4.00
2024-03-19T19:08:02.942Z,4.00
2024-03-19T19:10:34.094Z,4.00
2024-03-19T19:13:05.441Z,3.90
2024-03-19T19:15:35.984Z,3.88
2024-03-19T19:18:07.198Z,3.80
2024-03-19T19:20:37.860Z,3.80
2024-03-19T19:23:08.691Z,3.70
2024-03-19T19:25:40.023Z,3.70
2024-03-19T19:28:11.260Z,3.64
2024-03-19T19:30:43.322Z,3.60
2024-03-19T19:33:17.167Z,3.60
2024-03-19T19:35:47.742Z,3.60
2024-03-19T19:38:20.417Z,3.60
2024-03-19T19:40:54.522Z,3.68
2024-03-19T19:43:25.328Z,3.70
2024-03-19T19:45:55.936Z,3.70
2024-03-19T19:48:26.963Z,3.70
2024-03-19T19:50:57.611Z,3.70
2024-03-19T19:53:28.241Z,3.62
2024-03-19T19:55:59.950Z,3.60
2024-03-19T19:58:31.014Z,3.60
2024-03-19T20:01:03.467Z,3.50
2024-03-19T20:03:33.984Z,3.50
2024-03-19T20:06:04.789Z,3.40
2024-03-19T20:08:35.691Z,3.40
2024-03-19T20:11:06.911Z,3.36
2024-03-19T20:13:37.475Z,3.30
2024-03-19T20:16:09.285Z,3.30
2024-03-19T20:18:39.954Z,3.30
2024-03-19T20:21:10.626Z,3.30
2024-03-19T20:23:41.267Z,3.30
2024-03-19T20:26:11.809Z,3.30
2024-03-19T20:28:42.435Z,3.30
2024-03-19T20:31:12.964Z,3.24
2024-03-19T20:33:43.736Z,3.20
2024-03-19T20:36:14.368Z,3.20
2024-03-19T20:38:45.786Z,3.10
2024-03-19T20:41:16.442Z,3.10
2024-03-19T20:43:47.081Z,3.02
2024-03-19T20:46:17.677Z,3.04
2024-03-19T20:48:48.212Z,3.06
2024-03-19T20:51:20.304Z,3.10
2024-03-19T20:53:52.159Z,3.00
2024-03-19T20:56:23.838Z,3.00
2024-03-19T20:58:55.503Z,3.00
2024-03-19T21:01:28.344Z,3.00
2024-03-19T21:03:58.920Z,3.00
2024-03-19T21:06:29.615Z,3.00
2024-03-19T21:09:00.251Z,3.00
2024-03-19T21:11:30.832Z,2.90
2024-03-19T21:14:01.466Z,2.90
2024-03-19T21:16:32.219Z,2.90
2024-03-19T21:19:03.660Z,2.84
2024-03-19T21:21:35.979Z,2.80
2024-03-19T21:24:08.282Z,2.80
2024-03-19T21:26:38.999Z,2.80
2024-03-19T21:29:09.578Z,2.80
2024-03-19T21:31:40.165Z,2.80
2024-03-19T21:34:10.813Z,2.70
2024-03-19T21:36:41.423Z,2.70
2024-03-19T21:39:12.106Z,2.70
2024-03-19T21:41:42.570Z,2.70
2024-03-19T21:44:13.178Z,2.62
2024-03-19T21:46:44.146Z,2.60
2024-03-19T21:49:15.876Z,2.50
2024-03-19T21:51:46.913Z,2.50
2024-03-19T21:54:17.442Z,2.50
2024-03-19T21:56:48.021Z,2.48
2024-03-19T21:59:18.558Z,2.42
2024-03-19T22:01:49.467Z,2.40
2024-03-19T22:04:20.243Z,2.40
2024-03-19T22:06:50.726Z,2.40
2024-03-19T22:09:21.557Z,2.40
2024-03-19T22:11:52.182Z,2.40
2024-03-19T22:14:22.699Z,2.40
2024-03-19T22:16:53.236Z,2.40
2024-03-19T22:19:23.965Z,2.40
2024-03-19T22:21:54.519Z,2.40
2024-03-19T22:24:25.308Z,2.40
2024-03-19T22:26:55.887Z,2.40
2024-03-19T22:29:26.574Z,2.40
2024-03-19T22:31:58.763Z,2.40
2024-03-19T22:34:29.938Z,2.40
2024-03-19T22:37:00.698Z,2.40
2024-03-19T22:39:31.369Z,2.40
2024-03-19T22:42:01.972Z,2.40
2024-03-19T22:44:32.470Z,2.36
2024-03-19T22:47:04.370Z,2.30
2024-03-19T22:49:35.045Z,2.20
2024-03-19T22:52:06.189Z,2.20
2024-03-19T22:54:36.764Z,2.10
2024-03-19T22:57:07.811Z,2.10
2024-03-19T22:59:38.440Z,2.10
2024-03-19T23:02:09.893Z,2.00
2024-03-19T23:04:40.450Z,2.00
2024-03-19T23:07:11.187Z,2.00
2024-03-19T23:09:43.243Z,2.00
2024-03-19T23:12:13.937Z,2.00
2024-03-19T23:14:44.440Z,2.04
2024-03-19T23:17:14.984Z,2.02
2024-03-19T23:19:46.790Z,2.10
2024-03-19T23:22:17.357Z,2.10
2024-03-19T23:24:48.001Z,2.10
2024-03-19T23:27:18.562Z,2.06
2024-03-19T23:29:49.241Z,2.00
2024-03-19T23:32:19.843Z,2.00
2024-03-19T23:34:50.514Z,1.90
2024-03-19T23:37:21.155Z,1.84
2024-03-19T23:39:52.181Z,1.80
2024-03-19T23:42:22.742Z,1.66
2024-03-19T23:44:53.353Z,1.60
2024-03-19T23:47:24.153Z,1.50
2024-03-19T23:49:54.727Z,1.40
2024-03-19T23:52:25.386Z,1.38
2024-03-19T23:54:56.131Z,1.30
2024-03-19T23:57:26.787Z,1.30
2024-03-19T23:59:59.010Z,1.30
